Time;durP1;ratioP1;P1;durP2;ratioP2;P2;SDS_P1;SDS_P2;PMS_P1;PMS_P2;Temp;Humidity;BMP_temperature;BMP_pressure;BME280_temperature;BME280_humidity;BME280_pressure;Samples;Min_cycle;Max_cycle;Signal;HPM_P1;HPM_P2
2023/09/30 00:02:50;;;;;;;17.52;10.80;;;;;;;13.44;100.00;100874.00;5575745;31;33847;-67
2023/09/30 00:05:53;;;;;;;16.73;11.48;;;;;;;13.41;100.00;100868.16;5589419;31;34097;-68
2023/09/30 00:08:57;;;;;;;20.62;11.40;;;;;;;13.40;100.00;100871.84;5589691;31;33755;-67
2023/09/30 00:12:00;;;;;;;15.95;11.75;;;;;;;13.40;100.00;100874.53;5589260;31;34673;-68
2023/09/30 00:15:03;;;;;;;16.37;11.00;;;;;;;13.38;100.00;100871.19;5589266;31;33914;-67
2023/09/30 00:18:07;;;;;;;21.45;12.02;;;;;;;13.36;100.00;100870.56;5589184;31;34493;-67
2023/09/30 00:21:11;;;;;;;19.98;12.20;;;;;;;13.36;100.00;100857.22;5575435;31;34520;-67
2023/09/30 00:24:14;;;;;;;18.42;11.55;;;;;;;13.34;100.00;100859.22;5589593;31;33959;-67
2023/09/30 00:27:17;;;;;;;25.15;11.75;;;;;;;13.30;100.00;100860.56;5589117;31;34005;-67
2023/09/30 00:30:21;;;;;;;20.92;11.32;;;;;;;13.26;100.00;100859.28;5575531;31;33778;-67
2023/09/30 00:33:25;;;;;;;18.08;11.93;;;;;;;13.25;100.00;100854.94;5589065;31;33942;-67
2023/09/30 00:36:28;;;;;;;16.10;10.98;;;;;;;13.24;100.00;100855.94;5589398;31;33992;-67
2023/09/30 00:39:32;;;;;;;15.93;11.12;;;;;;;13.24;100.00;100856.75;5588673;31;33805;-68
2023/09/30 00:42:36;;;;;;;17.40;11.00;;;;;;;13.18;100.00;100857.44;5588493;31;34772;-67
2023/09/30 00:45:39;;;;;;;15.60;10.57;;;;;;;13.12;100.00;100849.34;5588805;31;34044;-67
2023/09/30 00:48:42;;;;;;;17.70;10.90;;;;;;;13.07;100.00;100845.31;5588951;31;33870;-67
2023/09/30 00:51:47;;;;;;;15.45;11.43;;;;;;;13.07;100.00;100844.47;5588861;31;35398;-67
2023/09/30 00:54:53;;;;;;;20.25;11.07;;;;;;;13.06;100.00;100842.84;5575242;31;33843;-67
2023/09/30 00:57:57;;;;;;;17.27;11.35;;;;;;;13.05;100.00;100838.50;5588654;31;34464;-68
2023/09/30 01:01:00;;;;;;;16.73;10.00;;;;;;;13.10;100.00;100848.62;5588841;31;34801;-67
2023/09/30 01:04:03;;;;;;;14.85;10.50;;;;;;;13.08;100.00;100841.63;5588729;31;33915;-67
2023/09/30 01:07:07;;;;;;;16.40;10.75;;;;;;;13.03;100.00;100836.00;5588898;31;34552;-67
2023/09/30 01:10:10;;;;;;;21.15;10.57;;;;;;;12.97;100.00;100839.34;5588470;31;35393;-67
2023/09/30 01:13:13;;;;;;;17.08;10.07;;;;;;;12.93;100.00;100832.72;5574675;31;34190;-67
2023/09/30 01:16:16;;;;;;;18.52;10.40;;;;;;;12.91;100.00;100833.91;5574667;31;33859;-68
2023/09/30 01:19:19;;;;;;;15.35;10.77;;;;;;;12.87;100.00;100829.91;5588378;31;33711;-67
2023/09/30 01:22:23;;;;;;;18.23;11.07;;;;;;;12.88;100.00;100837.72;5588405;31;33801;-67
2023/09/30 01:25:26;;;;;;;17.48;11.60;;;;;;;12.92;100.00;100841.72;5574619;31;34497;-67
2023/09/30 01:28:30;;;;;;;19.05;11.27;;;;;;;12.90;100.00;100840.22;5588485;31;33974;-68
2023/09/30 01:31:33;;;;;;;16.58;11.30;;;;;;;12.85;100.00;100839.91;5574456;31;34121;-68
2023/09/30 01:34:37;;;;;;;18.42;11.73;;;;;;;12.83;100.00;100837.41;5574357;31;33730;-68
2023/09/30 01:37:40;;;;;;;17.67;11.82;;;;;;;12.88;100.00;100840.37;5574279;31;33899;-68
2023/09/30 01:40:44;;;;;;;20.37;11.43;;;;;;;12.88;100.00;100840.37;5588007;31;34039;-68
2023/09/30 01:43:47;;;;;;;18.50;10.52;;;;;;;12.83;100.00;100841.91;5587980;31;34190;-68
2023/09/30 01:46:49;;;;;;;15.50;10.77;;;;;;;12.78;100.00;100839.75;5587763;31;33808;-68
2023/09/30 01:49:52;;;;;;;16.17;10.63;;;;;;;12.75;100.00;100833.94;5587868;31;34466;-68
2023/09/30 01:52:55;;;;;;;14.93;10.48;;;;;;;12.77;100.00;100837.28;5576149;31;32985;-67
2023/09/30 01:55:59;;;;;;;13.70;10.18;;;;;;;12.80;100.00;100835.09;5590437;31;32400;-68
2023/09/30 01:59:02;;;;;;;17.33;10.77;;;;;;;12.80;100.00;100831.59;5576825;31;33779;-68
2023/09/30 02:02:05;;;;;;;14.68;10.60;;;;;;;12.80;100.00;100832.44;5590429;31;35282;-67
2023/09/30 02:05:08;;;;;;;15.02;10.85;;;;;;;12.78;100.00;100828.28;5590533;31;34047;-68
2023/09/30 02:08:13;;;;;;;16.80;11.20;;;;;;;12.74;100.00;100829.59;5590502;31;34002;-68
2023/09/30 02:11:17;;;;;;;13.68;10.80;;;;;;;12.66;100.00;100830.47;5590645;31;33627;-68
2023/09/30 02:14:20;;;;;;;16.58;10.60;;;;;;;12.64;100.00;100827.97;5590232;31;34112;-68
2023/09/30 02:17:23;;;;;;;15.65;10.30;;;;;;;12.61;100.00;100836.31;5590346;31;33811;-68
2023/09/30 02:20:30;;;;;;;18.83;10.68;;;;;;;12.61;100.00;100836.31;5590249;31;34282;-68
2023/09/30 02:23:33;;;;;;;22.37;10.32;;;;;;;12.58;100.00;100831.34;5590260;31;33862;-68
2023/09/30 02:26:38;;;;;;;11.70;9.60;;;;;;;12.57;100.00;100834.16;5590284;31;34874;-68
2023/09/30 02:29:42;;;;;;;15.68;9.18;;;;;;;12.52;100.00;100829.34;5590280;31;34521;-68
2023/09/30 02:32:46;;;;;;;15.15;9.57;;;;;;;12.50;100.00;100827.84;5590534;31;34587;-68
2023/09/30 02:35:49;;;;;;;14.75;9.18;;;;;;;12.48;100.00;100817.38;5576655;31;34463;-68
2023/09/30 02:38:53;;;;;;;16.15;9.77;;;;;;;12.45;100.00;100823.03;5590241;31;33796;-68
2023/09/30 02:41:56;;;;;;;19.85;10.52;;;;;;;12.39;100.00;100817.56;5590320;31;34506;-68
2023/09/30 02:45:01;;;;;;;21.33;11.43;;;;;;;12.35;100.00;100817.03;5576153;31;34014;-68
2023/09/30 02:48:04;;;;;;;14.43;10.85;;;;;;;12.34;100.00;100819.91;5590239;31;34531;-68
2023/09/30 02:51:11;;;;;;;15.20;9.82;;;;;;;12.32;100.00;100814.72;5576394;31;33907;-68
2023/09/30 02:54:16;;;;;;;17.27;10.40;;;;;;;12.32;100.00;100822.72;5589964;31;33853;-68
2023/09/30 02:57:19;;;;;;;15.98;10.98;;;;;;;12.28;100.00;100824.06;5590021;31;33923;-68
2023/09/30 03:00:26;;;;;;;16.42;11.23;;;;;;;12.24;100.00;100820.06;5589991;31;34149;-68
2023/09/30 03:03:30;;;;;;;17.02;10.95;;;;;;;12.20;100.00;100827.53;5589420;31;34028;-68
2023/09/30 03:06:36;;;;;;;18.67;10.75;;;;;;;12.18;100.00;100826.87;5576314;31;33840;-68
2023/09/30 03:09:39;;;;;;;18.77;11.20;;;;;;;12.15;100.00;100818.41;5589986;31;33834;-68
2023/09/30 03:12:43;;;;;;;15.60;11.18;;;;;;;12.15;100.00;100821.09;5590099;31;33919;-68
2023/09/30 03:15:46;;;;;;;14.18;10.68;;;;;;;12.13;100.00;100826.56;5589828;31;34099;-68
2023/09/30 03:18:49;;;;;;;16.12;10.95;;;;;;;12.12;100.00;100830.22;5589936;31;33903;-68
2023/09/30 03:21:52;;;;;;;19.65;11.50;;;;;;;12.13;100.00;100828.38;5589990;31;34606;-68
2023/09/30 03:24:57;;;;;;;17.67;12.00;;;;;;;12.13;100.00;100823.06;5589951;31;33787;-68
2023/09/30 03:28:00;;;;;;;14.40;11.48;;;;;;;12.09;100.00;100829.72;5590040;31;33394;-68
2023/09/30 03:31:04;;;;;;;16.65;11.63;;;;;;;12.08;100.00;100839.53;5589765;31;33916;-68
2023/09/30 03:34:08;;;;;;;16.92;12.35;;;;;;;12.06;100.00;100836.19;5576416;31;33934;-68
2023/09/30 03:37:11;;;;;;;18.02;12.27;;;;;;;12.08;100.00;100834.19;5590044;31;33791;-68
2023/09/30 03:40:18;;;;;;;20.77;12.10;;;;;;;12.06;100.00;100836.19;5589962;31;34004;-68
2023/09/30 03:43:23;;;;;;;16.35;11.88;;;;;;;12.05;100.00;100836.38;5589767;31;33851;-68
2023/09/30 03:46:26;;;;;;;15.90;12.57;;;;;;;12.06;100.00;100838.00;5589313;31;34805;-68
2023/09/30 03:49:30;;;;;;;19.35;13.32;;;;;;;12.03;100.00;100833.87;5589588;31;33948;-68
2023/09/30 03:52:34;;;;;;;22.17;12.82;;;;;;;12.00;100.00;100842.19;5589634;31;33774;-68
2023/09/30 03:55:37;;;;;;;17.37;12.70;;;;;;;11.99;100.00;100839.69;5589574;31;34545;-68
2023/09/30 03:58:41;;;;;;;15.52;12.77;;;;;;;11.97;100.00;100845.16;5589532;31;35354;-68
2023/09/30 04:01:47;;;;;;;21.95;13.00;;;;;;;11.96;100.00;100843.50;5575915;31;33845;-67
2023/09/30 04:04:53;;;;;;;16.33;12.48;;;;;;;11.94;100.00;100836.69;5589305;31;33961;-68
2023/09/30 04:07:56;;;;;;;17.20;12.80;;;;;;;11.92;100.00;100841.31;5575721;31;34725;-68
2023/09/30 04:11:00;;;;;;;19.12;13.38;;;;;;;11.94;100.00;100837.53;5589459;31;33903;-68
2023/09/30 04:14:07;;;;;;;15.20;13.10;;;;;;;11.92;100.00;100842.16;5589217;31;33861;-68
2023/09/30 04:17:10;;;;;;;16.80;13.60;;;;;;;11.92;100.00;100846.66;5588139;31;34025;-68
2023/09/30 04:20:16;;;;;;;20.27;14.70;;;;;;;11.88;100.00;100837.34;5589212;31;34585;-68
2023/09/30 04:23:20;;;;;;;21.23;14.18;;;;;;;11.90;100.00;100835.38;5575629;31;34599;-68
2023/09/30 04:26:23;;;;;;;17.25;13.20;;;;;;;11.96;100.00;100837.34;5575663;31;33917;-68
2023/09/30 04:29:26;;;;;;;19.50;12.98;;;;;;;11.92;100.00;100833.34;5589407;31;34479;-68
2023/09/30 04:32:29;;;;;;;19.17;13.13;;;;;;;11.87;100.00;100846.31;5589609;31;33778;-68
2023/09/30 04:35:35;;;;;;;17.87;13.27;;;;;;;11.87;100.00;100846.31;5589178;31;33992;-68
2023/09/30 04:38:37;;;;;;;19.45;13.00;;;;;;;11.85;100.00;100846.50;5589171;31;34552;-69
2023/09/30 04:41:43;;;;;;;15.25;12.45;;;;;;;11.85;100.00;100850.97;5589355;31;33844;-69
2023/09/30 04:44:46;;;;;;;17.05;13.05;;;;;;;11.84;100.00;100855.47;5588819;31;34549;-69
2023/09/30 04:47:50;;;;;;;19.27;12.37;;;;;;;11.87;100.00;100851.63;5588801;31;34679;-68
2023/09/30 04:50:53;;;;;;;16.70;12.95;;;;;;;11.90;100.00;100853.97;5589101;31;34179;-68
2023/09/30 04:53:57;;;;;;;19.58;13.30;;;;;;;11.97;100.00;100861.13;5588958;31;33827;-68
2023/09/30 04:57:00;;;;;;;18.40;13.20;;;;;;;11.98;100.00;100862.78;5588676;31;34843;-68
2023/09/30 05:00:10;;;;;;;20.25;13.18;;;;;;;11.99;100.00;100864.44;5588972;31;34188;-68
2023/09/30 05:03:13;;;;;;;18.08;12.80;;;;;;;12.09;100.00;100856.31;5574976;31;33833;-68
2023/09/30 05:06:16;;;;;;;22.83;13.27;;;;;;;12.10;100.00;100858.78;5589042;31;34068;-68
2023/09/30 05:09:20;;;;;;;21.73;12.68;;;;;;;12.16;100.00;100858.13;5588428;31;34463;-68
2023/09/30 05:12:24;;;;;;;17.27;13.23;;;;;;;12.16;100.00;100866.09;5588643;31;33952;-68
2023/09/30 05:15:29;;;;;;;15.85;12.68;;;;;;;12.25;100.00;100876.78;5588733;31;33916;-68
2023/09/30 05:18:32;;;;;;;17.60;12.90;;;;;;;12.37;100.00;100881.56;5588404;31;34091;-69
2023/09/30 05:21:36;;;;;;;18.12;12.80;;;;;;;12.50;100.00;100881.88;5588504;31;33839;-68
2023/09/30 05:24:39;;;;;;;21.70;13.00;;;;;;;12.70;100.00;100895.69;5588462;31;33836;-69
2023/09/30 05:27:42;;;;;;;17.90;12.68;;;;;;;12.80;100.00;100882.19;5589859;31;33843;-69
2023/09/30 05:30:45;;;;;;;18.12;12.45;;;;;;;12.93;100.00;100877.16;5590850;31;34574;-69
2023/09/30 05:33:48;;;;;;;14.02;12.05;;;;;;;13.08;100.00;100875.44;5590738;31;33905;-69
2023/09/30 05:36:51;;;;;;;15.52;11.68;;;;;;;13.36;100.00;100889.19;5590826;31;33962;-69
2023/09/30 05:39:54;;;;;;;20.48;11.57;;;;;;;13.52;100.00;100882.94;5590738;31;33798;-68
2023/09/30 05:42:58;;;;;;;17.48;10.93;;;;;;;13.72;100.00;100886.84;5590752;31;34525;-69
2023/09/30 05:46:02;;;;;;;16.12;11.18;;;;;;;13.78;100.00;100889.62;5590378;31;34533;-69
2023/09/30 05:49:10;;;;;;;16.10;11.15;;;;;;;13.93;100.00;100897.72;5590425;31;34131;-69
2023/09/30 05:52:13;;;;;;;17.27;11.05;;;;;;;14.18;100.00;100888.53;5590500;31;33770;-68
2023/09/30 05:55:20;;;;;;;14.02;10.43;;;;;;;14.35;100.00;100897.22;5589854;31;33792;-68
2023/09/30 05:58:23;;;;;;;17.87;10.23;;;;;;;14.57;100.00;100895.56;5590294;31;34709;-68
2023/09/30 06:01:27;;;;;;;13.18;9.18;;;;;;;14.77;100.00;100883.34;5590425;31;33932;-69
2023/09/30 06:04:33;;;;;;;20.70;10.05;;;;;;;15.16;100.00;100889.25;5590445;31;33906;-68
2023/09/30 06:07:36;;;;;;;15.30;9.43;;;;;;;15.29;100.00;100888.63;5590485;31;34100;-68
2023/09/30 06:10:42;;;;;;;14.43;9.15;;;;;;;15.52;100.00;100888.50;5589959;31;34894;-68
2023/09/30 06:13:48;;;;;;;14.30;9.02;;;;;;;15.76;100.00;100884.66;5590734;31;33842;-68
2023/09/30 06:16:51;;;;;;;16.50;8.95;;;;;;;15.88;100.00;100899.19;5590222;31;34536;-68
2023/09/30 06:19:54;;;;;;;12.37;9.10;;;;;;;16.08;100.00;100903.75;5576574;31;34026;-69
2023/09/30 06:22:57;;;;;;;15.60;9.35;;;;;;;16.27;100.00;100901.44;5590586;31;34519;-68
2023/09/30 06:26:02;;;;;;;16.80;8.63;;;;;;;16.37;100.00;100899.25;5590429;31;33769;-68
2023/09/30 06:29:06;;;;;;;12.98;8.30;;;;;;;16.59;100.00;100897.44;5590423;31;33809;-69
2023/09/30 06:32:09;;;;;;;17.87;8.77;;;;;;;16.76;100.00;100899.62;5590618;31;33824;-69
2023/09/30 06:35:13;;;;;;;14.77;8.90;;;;;;;16.95;100.00;100906.12;5590083;31;33797;-69
2023/09/30 06:38:19;;;;;;;15.73;9.65;;;;;;;17.10;100.00;100903.34;5589210;31;33917;-68
2023/09/30 06:41:23;;;;;;;18.00;8.93;;;;;;;17.08;100.00;100908.91;5590155;31;33855;-69
2023/09/30 06:44:25;;;;;;;15.00;8.68;;;;;;;17.11;100.00;100902.31;5589858;31;33946;-69
2023/09/30 06:47:33;;;;;;;18.58;9.40;;;;;;;17.25;100.00;100896.84;5589951;31;34578;-69
2023/09/30 06:50:36;;;;;;;14.85;9.13;;;;;;;17.26;100.00;100911.91;5589955;31;33978;-68
2023/09/30 06:53:39;;;;;;;12.65;8.65;;;;;;;17.31;100.00;100906.78;5590034;31;33773;-69
2023/09/30 06:56:42;;;;;;;15.10;8.95;;;;;;;17.24;100.00;100907.75;5589843;31;34022;-68
2023/09/30 06:59:45;;;;;;;16.60;9.25;;;;;;;17.44;100.00;100915.88;5576488;31;33811;-69
2023/09/30 07:02:48;;;;;;;19.95;8.82;;;;;;;17.32;100.00;100919.16;5589992;31;34078;-69
2023/09/30 07:05:51;;;;;;;17.80;8.73;;;;;;;17.53;100.00;100917.38;5576257;31;33856;-69
2023/09/30 07:08:54;;;;;;;18.83;9.63;;;;;;;17.72;100.00;100920.16;5575870;31;33922;-69
2023/09/30 07:11:58;;;;;;;16.27;9.02;;;;;;;17.88;100.00;100920.84;5576147;31;34526;-69
2023/09/30 07:15:02;;;;;;;19.58;8.90;;;;;;;17.90;100.00;100919.63;5575964;31;34625;-69
2023/09/30 07:18:06;;;;;;;17.37;9.68;;;;;;;18.02;100.00;100920.69;5589526;31;33859;-69
2023/09/30 07:21:08;;;;;;;15.80;9.35;;;;;;;18.08;100.00;100925.25;5589622;31;34000;-68
2023/09/30 07:24:12;;;;;;;14.52;8.82;;;;;;;18.25;100.00;100920.28;5575622;31;34553;-69
2023/09/30 07:27:14;;;;;;;18.87;8.93;;;;;;;18.46;100.00;100912.06;5589712;31;33813;-69
2023/09/30 07:30:30;;;;;;;19.25;9.40;;;;;;;18.62;100.00;100927.81;5589609;31;33880;-69
2023/09/30 07:33:32;;;;;;;13.88;9.32;;;;;;;18.79;100.00;100932.75;5589268;31;33842;-69
2023/09/30 07:36:35;;;;;;;15.73;9.38;;;;;;;18.88;100.00;100923.47;5575750;31;34514;-69
2023/09/30 07:39:38;;;;;;;17.30;9.32;;;;;;;19.20;100.00;100938.72;5589502;31;33876;-69
2023/09/30 07:42:41;;;;;;;13.35;9.68;;;;;;;19.53;100.00;100939.47;5589605;31;34470;-69
2023/09/30 07:45:44;;;;;;;20.67;10.68;;;;;;;20.01;100.00;100938.19;5581017;31;246387;-69
2023/09/30 07:48:47;;;;;;;18.00;9.52;;;;;;;20.02;100.00;100931.78;5589026;31;33835;-70
2023/09/30 07:51:50;;;;;;;16.87;9.93;;;;;;;19.99;100.00;100933.06;5589127;31;34035;-69
2023/09/30 07:54:54;;;;;;;17.25;9.80;;;;;;;20.63;100.00;100942.78;5589425;31;33782;-69
2023/09/30 07:57:58;;;;;;;16.10;9.68;;;;;;;21.57;100.00;100942.50;5589053;31;34084;-69
2023/09/30 08:01:03;;;;;;;15.35;8.70;;;;;;;22.15;92.82;100941.97;5589653;31;33841;-70
2023/09/30 08:04:06;;;;;;;20.80;9.23;;;;;;;22.46;90.36;100936.31;5589133;31;33896;-69
2023/09/30 08:07:09;;;;;;;20.27;10.10;;;;;;;22.29;92.02;100944.25;5588738;31;33397;-69
2023/09/30 08:10:13;;;;;;;18.83;9.93;;;;;;;22.06;93.81;100938.78;5589277;31;33856;-69
2023/09/30 08:13:17;;;;;;;25.17;9.95;;;;;;;23.00;80.68;100943.31;5589568;31;33763;-69
2023/09/30 08:16:20;;;;;;;20.95;10.02;;;;;;;23.66;76.61;100942.06;5589046;31;34499;-69
2023/09/30 08:19:24;;;;;;;17.95;9.80;;;;;;;24.34;69.21;100944.75;5588806;31;33962;-69
2023/09/30 08:22:27;;;;;;;16.05;10.30;;;;;;;24.83;67.82;100948.56;5588486;31;34877;-68
2023/09/30 08:25:30;;;;;;;20.58;9.75;;;;;;;24.89;63.07;100949.47;5588074;31;33878;-69
2023/09/30 08:28:35;;;;;;;19.75;10.00;;;;;;;25.45;62.10;100943.78;5588792;31;33936;-69
2023/09/30 08:31:37;;;;;;;13.85;8.73;;;;;;;25.31;59.87;100942.50;5588938;31;34636;-69
2023/09/30 08:34:40;;;;;;;25.77;8.82;;;;;;;25.01;59.23;100936.62;5588616;31;34556;-68
2023/09/30 08:37:43;;;;;;;15.10;8.82;;;;;;;24.73;60.00;100939.44;5575100;31;33910;-69
2023/09/30 08:40:51;;;;;;;15.88;7.37;;;;;;;24.15;62.89;100936.00;5588924;31;33776;-69
2023/09/30 08:43:55;;;;;;;17.73;8.13;;;;;;;23.75;66.33;100933.31;5588705;31;34568;-70
2023/09/30 08:46:58;;;;;;;13.90;7.10;;;;;;;23.77;67.82;100933.06;5574882;31;33818;-70
2023/09/30 08:50:10;;;;;;;12.55;7.62;;;;;;;23.21;73.90;100926.47;5574635;31;34507;-69
2023/09/30 08:53:16;;;;;;;25.88;8.02;;;;;;;23.22;73.16;100924.59;5574983;31;33968;-68
2023/09/30 08:56:26;;;;;;;24.73;7.97;;;;;;;22.67;80.15;100922.22;5588585;31;33859;-70
2023/09/30 08:59:33;;;;;;;19.70;7.40;;;;;;;22.39;85.16;100924.75;5588420;31;33978;-70
2023/09/30 09:02:36;;;;;;;11.95;5.55;;;;;;;22.55;82.57;100913.28;5587764;31;33812;-69
2023/09/30 09:05:39;;;;;;;12.13;5.03;;;;;;;23.23;71.79;100918.94;5588454;31;33936;-69
2023/09/30 09:08:42;;;;;;;11.68;4.93;;;;;;;23.06;69.29;100923.41;5588494;31;33961;-68
2023/09/30 09:11:46;;;;;;;12.60;5.25;;;;;;;23.27;68.13;100924.69;5588215;31;33973;-69
2023/09/30 09:14:49;;;;;;;11.88;5.20;;;;;;;22.27;72.97;100924.72;5588156;31;34853;-68
2023/09/30 09:17:55;;;;;;;10.23;5.03;;;;;;;22.36;75.86;100922.53;5588255;31;33953;-69
2023/09/30 09:21:22;;;;;;;14.23;5.47;;;;;;;22.41;74.74;100919.97;5588151;31;33884;-69
2023/09/30 09:24:46;;;;;;;12.57;5.32;;;;;;;22.92;73.63;100920.12;5574457;31;34661;-69
2023/09/30 09:27:53;;;;;;;11.48;4.85;;;;;;;23.09;72.32;100920.22;5574401;31;33879;-69
2023/09/30 09:30:57;;;;;;;11.77;4.47;;;;;;;23.03;72.79;100923.09;5588355;31;33833;-69
2023/09/30 09:34:03;;;;;;;8.02;4.70;;;;;;;22.51;71.87;100921.00;5574159;31;34690;-68
2023/09/30 09:37:20;;;;;;;12.57;5.10;;;;;;;21.87;75.94;100910.94;5587930;31;34024;-68
2023/09/30 09:40:27;;;;;;;9.10;4.70;;;;;;;21.99;74.08;100906.44;5587959;31;33791;-68
2023/09/30 09:43:33;;;;;;;16.35;5.20;;;;;;;21.70;76.94;100907.22;5587747;31;33828;-68
2023/09/30 09:46:36;;;;;;;11.93;4.75;;;;;;;21.15;79.15;100904.56;5587533;31;33833;-68
2023/09/30 09:49:39;;;;;;;10.38;4.75;;;;;;;21.12;81.60;100901.44;5574012;31;34806;-68
2023/09/30 09:52:43;;;;;;;13.52;5.70;;;;;;;21.17;80.05;100907.03;5587686;31;33981;-66
2023/09/30 09:55:47;;;;;;;14.70;5.10;;;;;;;21.51;78.51;100906.41;5587271;31;34153;-68
2023/09/30 09:58:50;;;;;;;13.35;5.03;;;;;;;21.23;79.83;100909.66;5587335;31;33910;-69
2023/09/30 10:01:55;;;;;;;12.75;5.20;;;;;;;21.00;86.72;100905.94;5587371;31;33405;-69
2023/09/30 10:04:59;;;;;;;12.70;5.50;;;;;;;20.86;87.47;100904.44;5587051;31;33959;-68
2023/09/30 10:08:07;;;;;;;13.98;5.47;;;;;;;20.68;91.26;100906.03;5573570;31;33878;-68
2023/09/30 10:11:20;;;;;;;10.80;5.60;;;;;;;21.19;88.80;100905.78;5574263;31;34509;-69
2023/09/30 10:14:32;;;;;;;13.43;5.28;;;;;;;21.14;88.00;100910.19;5589588;31;33888;-68
2023/09/30 10:17:58;;;;;;;10.70;6.00;;;;;;;20.77;92.22;100902.00;5590258;31;33753;-68
2023/09/30 10:21:09;;;;;;;12.93;5.72;;;;;;;21.14;91.10;100900.22;5590218;31;33909;-68
2023/09/30 10:24:24;;;;;;;11.07;5.62;;;;;;;21.21;88.33;100900.12;5576493;31;34423;-69
2023/09/30 10:27:29;;;;;;;10.57;5.35;;;;;;;21.45;88.74;100887.59;5589710;31;34150;-68
2023/09/30 10:30:32;;;;;;;12.02;6.25;;;;;;;21.24;88.68;100888.91;5589751;31;34537;-70
2023/09/30 10:33:35;;;;;;;10.05;5.82;;;;;;;21.10;95.46;100890.91;5589940;31;33873;-68
2023/09/30 10:36:40;;;;;;;10.80;6.15;;;;;;;21.42;91.01;100886.19;5589836;31;34507;-67
2023/09/30 10:39:55;;;;;;;12.88;6.05;;;;;;;21.28;92.22;100891.97;5576150;31;34134;-69
2023/09/30 10:42:58;;;;;;;13.15;6.25;;;;;;;21.57;91.22;100885.78;5575862;31;33784;-68
2023/09/30 10:46:05;;;;;;;12.48;6.32;;;;;;;20.96;95.34;100878.56;5589464;31;34341;-68
2023/09/30 10:49:17;;;;;;;15.15;6.22;;;;;;;20.80;100.00;100890.78;5589246;31;34450;-66
2023/09/30 10:52:24;;;;;;;16.12;6.30;;;;;;;20.81;99.66;100892.44;5589367;31;34804;-68
2023/09/30 10:55:29;;;;;;;15.88;5.93;;;;;;;20.55;100.00;100891.84;5589349;31;33899;-69
2023/09/30 10:58:48;;;;;;;12.52;6.55;;;;;;;20.34;100.00;100887.66;5589134;31;34339;-69
2023/09/30 11:01:53;;;;;;;14.95;7.10;;;;;;;20.06;100.00;100882.66;5589083;31;33807;-69
2023/09/30 11:04:56;;;;;;;16.73;7.05;;;;;;;20.22;100.00;100890.22;5589881;31;34611;-67
2023/09/30 11:08:03;;;;;;;16.00;7.18;;;;;;;19.72;100.00;100874.97;5575920;31;34543;-69
2023/09/30 11:11:05;;;;;;;12.98;7.03;;;;;;;19.61;100.00;100878.34;5589647;31;34423;-68
2023/09/30 11:14:17;;;;;;;15.38;7.62;;;;;;;19.66;100.00;100870.44;5589825;31;33817;-68
2023/09/30 11:17:22;;;;;;;15.18;7.37;;;;;;;19.53;100.00;100880.25;5590002;31;34622;-69
2023/09/30 11:20:25;;;;;;;15.80;7.22;;;;;;;19.35;100.00;100876.59;5590151;31;33860;-68
2023/09/30 11:23:28;;;;;;;12.80;7.50;;;;;;;19.30;100.00;100879.91;5589158;31;34949;-68
2023/09/30 11:26:32;;;;;;;16.87;7.57;;;;;;;19.19;100.00;100882.41;5588763;31;34408;-67
2023/09/30 11:29:34;;;;;;;15.15;7.72;;;;;;;18.94;100.00;100887.66;5588805;31;34003;-67
2023/09/30 11:32:38;;;;;;;13.10;7.37;;;;;;;18.88;100.00;100880.44;5575309;31;33834;-68
2023/09/30 11:35:54;;;;;;;15.25;7.82;;;;;;;18.91;100.00;100896.97;5575799;31;33797;-67
2023/09/30 11:38:58;;;;;;;15.80;8.27;;;;;;;19.03;100.00;100891.75;5589211;31;34993;-69
2023/09/30 11:42:15;;;;;;;18.23;8.63;;;;;;;18.94;100.00;100890.34;5575701;31;34464;-67
2023/09/30 11:45:24;;;;;;;19.30;8.52;;;;;;;18.70;100.00;100881.06;5589363;31;33891;-68
2023/09/30 11:48:28;;;;;;;16.13;8.57;;;;;;;18.77;100.00;100897.22;5575762;31;33960;-68
2023/09/30 11:51:45;;;;;;;12.05;8.93;;;;;;;18.98;100.00;100903.16;5589599;31;33869;-69
2023/09/30 11:54:48;;;;;;;12.07;8.38;;;;;;;18.97;100.00;100898.84;5589440;31;33904;-67
2023/09/30 11:57:54;;;;;;;14.57;8.82;;;;;;;18.86;100.00;100890.56;5589181;31;33382;-68
2023/09/30 12:01:00;;;;;;;12.27;8.30;;;;;;;18.86;100.00;100886.03;5589195;31;34910;-67
2023/09/30 12:04:04;;;;;;;16.90;8.77;;;;;;;18.95;100.00;100892.84;5589457;31;33897;-67
2023/09/30 12:07:06;;;;;;;16.10;9.32;;;;;;;18.88;100.00;100886.62;5589295;31;33894;-68
2023/09/30 12:10:10;;;;;;;15.73;9.40;;;;;;;18.94;100.00;100887.66;5589742;31;34024;-71
2023/09/30 12:13:12;;;;;;;16.33;9.45;;;;;;;18.87;100.00;100885.00;5589179;31;33839;-68
2023/09/30 12:16:16;;;;;;;15.95;9.27;;;;;;;18.69;100.00;100871.34;5575513;31;33895;-67
2023/09/30 12:19:20;;;;;;;16.60;9.32;;;;;;;18.89;100.00;100877.53;5589130;31;34571;-69
2023/09/30 12:22:23;;;;;;;14.85;9.05;;;;;;;18.73;100.00;100875.31;5575589;31;33875;-69
2023/09/30 12:25:26;;;;;;;24.15;9.60;;;;;;;18.81;100.00;100868.88;5589331;31;34515;-68
2023/09/30 12:28:31;;;;;;;18.30;9.32;;;;;;;18.69;100.00;100874.03;5589207;31;33871;-69
2023/09/30 12:31:34;;;;;;;17.62;9.32;;;;;;;18.74;100.00;100870.72;5589114;31;34245;-70
2023/09/30 12:34:55;;;;;;;19.55;9.38;;;;;;;18.74;100.00;100876.94;5589077;31;34068;-67
2023/09/30 12:37:57;;;;;;;18.98;9.05;;;;;;;19.02;100.00;100874.00;5573995;31;34799;-68
2023/09/30 12:41:00;;;;;;;16.35;9.93;;;;;;;19.03;100.00;100878.31;5575299;31;34862;-69
2023/09/30 12:44:03;;;;;;;17.25;9.20;;;;;;;19.02;100.00;100876.69;5589283;31;33824;-69
2023/09/30 12:47:07;;;;;;;19.58;9.52;;;;;;;19.08;100.00;100873.12;5575053;31;33877;-69
2023/09/30 12:50:10;;;;;;;16.73;9.77;;;;;;;19.39;100.00;100885.88;5575187;31;34564;-68
2023/09/30 12:53:14;;;;;;;19.60;9.52;;;;;;;19.54;100.00;100881.09;5588837;31;35119;-68
2023/09/30 12:56:17;;;;;;;15.40;9.38;;;;;;;19.51;100.00;100887.69;5589223;31;34718;-66
2023/09/30 12:59:24;;;;;;;15.10;8.88;;;;;;;19.71;100.00;100895.69;5588852;31;32755;-68
2023/09/30 13:02:27;;;;;;;21.30;10.15;;;;;;;19.45;100.00;100895.81;5574929;31;34786;-69
2023/09/30 13:05:30;;;;;;;15.68;9.23;;;;;;;19.53;100.00;100888.31;5588887;31;34516;-69
2023/09/30 13:08:34;;;;;;;12.65;9.25;;;;;;;19.61;100.00;100887.25;5588988;31;34131;-67
2023/09/30 13:11:37;;;;;;;16.33;9.68;;;;;;;19.69;100.00;100876.25;5575200;31;34619;-69
2023/09/30 13:14:40;;;;;;;25.08;9.40;;;;;;;19.75;100.00;100880.75;5575103;31;33297;-69
2023/09/30 13:17:43;;;;;;;19.50;9.48;;;;;;;19.74;100.00;100871.06;5588498;31;33802;-68
2023/09/30 13:20:46;;;;;;;13.57;9.07;;;;;;;19.77;100.00;100870.59;5574543;31;34681;-69
2023/09/30 13:23:49;;;;;;;14.07;8.73;;;;;;;19.96;100.00;100861.56;5574607;31;33847;-68
2023/09/30 13:26:52;;;;;;;13.45;8.50;;;;;;;20.17;100.00;100864.97;5574561;31;33823;-69
2023/09/30 13:29:56;;;;;;;16.70;9.48;;;;;;;20.16;100.00;100850.66;5588370;31;34483;-70
2023/09/30 13:32:59;;;;;;;13.57;8.93;;;;;;;20.61;100.00;100853.22;5574357;31;34010;-69
2023/09/30 13:36:03;;;;;;;13.80;9.13;;;;;;;20.84;100.00;100861.50;5588188;31;33820;-70
2023/09/30 13:39:06;;;;;;;15.18;8.80;;;;;;;20.87;100.00;100860.22;5574074;31;33873;-69
2023/09/30 13:42:09;;;;;;;18.83;9.10;;;;;;;21.01;100.00;100853.66;5588265;31;33877;-68
2023/09/30 13:45:12;;;;;;;17.98;9.32;;;;;;;21.26;100.00;100849.00;5587167;31;33905;-68
2023/09/30 13:48:15;;;;;;;15.85;8.60;;;;;;;21.22;100.00;100847.81;5574468;31;34602;-68
2023/09/30 13:51:18;;;;;;;16.67;8.95;;;;;;;21.24;100.00;100843.84;5590616;31;33732;-68
2023/09/30 13:54:20;;;;;;;13.75;8.50;;;;;;;21.48;100.00;100836.69;5590739;31;33670;-69
2023/09/30 13:57:23;;;;;;;11.98;8.02;;;;;;;21.76;100.00;100835.25;5576779;31;33964;-68